sensor_id;sensor_type;location;lat;lon;timestamp;pressure;altitude;pressure_sealevel;temperature;humidity
19676;BME280;39539;52.202;9.876;2022-12-05T00:01:37;101072.84;;;0.83;100.00
19676;BME280;39539;52.202;9.876;2022-12-05T00:04:06;101056.28;;;0.73;100.00
19676;BME280;39539;52.202;9.876;2022-12-05T00:06:33;101069.84;;;0.88;100.00
19676;BME280;39539;52.202;9.876;2022-12-05T00:09:00;101065.00;;;0.83;100.00
19676;BME280;39539;52.202;9.876;2022-12-05T00:11:27;101070.78;;;0.77;100.00
19676;BME280;39539;52.202;9.876;2022-12-05T00:13:54;101070.34;;;0.82;100.00
19676;BME280;39539;52.202;9.876;2022-12-05T00:16:22;101066.53;;;0.96;100.00
19676;BME280;39539;52.202;9.876;2022-12-05T00:18:48;101063.47;;;0.81;100.00
19676;BME280;39539;52.202;9.876;2022-12-05T00:21:16;101067.94;;;1.00;100.00
19676;BME280;39539;52.202;9.876;2022-12-05T00:23:42;101062.72;;;1.09;100.00
19676;BME280;39539;52.202;9.876;2022-12-05T00:26:08;101063.81;;;1.07;100.00
19676;BME280;39539;52.202;9.876;2022-12-05T00:28:34;101060.91;;;1.10;100.00
19676;BME280;39539;52.202;9.876;2022-12-05T00:31:08;101065.22;;;1.11;100.00
19676;BME280;39539;52.202;9.876;2022-12-05T00:33:34;101059.13;;;1.01;100.00
19676;BME280;39539;52.202;9.876;2022-12-05T00:36:05;101060.25;;;1.08;100.00
19676;BME280;39539;52.202;9.876;2022-12-05T00:38:30;101063.25;;;1.03;100.00
19676;BME280;39539;52.202;9.876;2022-12-05T00:41:01;101060.75;;;1.02;100.00
19676;BME280;39539;52.202;9.876;2022-12-05T00:43:27;101072.25;;;1.10;100.00
19676;BME280;39539;52.202;9.876;2022-12-05T00:45:52;101066.84;;;1.02;100.00
19676;BME280;39539;52.202;9.876;2022-12-05T00:48:17;101066.97;;;0.91;100.00
19676;BME280;39539;52.202;9.876;2022-12-05T00:50:43;101068.78;;;1.00;100.00
19676;BME280;39539;52.202;9.876;2022-12-05T00:53:08;101071.53;;;1.08;100.00
19676;BME280;39539;52.202;9.876;2022-12-05T00:55:35;101067.94;;;1.09;100.00
19676;BME280;39539;52.202;9.876;2022-12-05T00:58:01;101074.44;;;1.15;100.00
19676;BME280;39539;52.202;9.876;2022-12-05T01:00:26;101064.50;;;1.09;100.00
19676;BME280;39539;52.202;9.876;2022-12-05T01:02:52;101069.03;;;1.07;100.00
19676;BME280;39539;52.202;9.876;2022-12-05T01:05:17;101050.28;;;1.02;100.00
19676;BME280;39539;52.202;9.876;2022-12-05T01:07:42;101056.09;;;1.05;100.00
19676;BME280;39539;52.202;9.876;2022-12-05T01:10:08;101049.47;;;1.01;100.00
19676;BME280;39539;52.202;9.876;2022-12-05T01:12:33;101057.47;;;1.09;100.00
19676;BME280;39539;52.202;9.876;2022-12-05T01:14:59;101061.63;;;1.12;100.00
19676;BME280;39539;52.202;9.876;2022-12-05T01:17:24;101045.59;;;0.96;100.00
19676;BME280;39539;52.202;9.876;2022-12-05T01:19:49;101059.69;;;1.14;100.00
19676;BME280;39539;52.202;9.876;2022-12-05T01:22:15;101044.66;;;0.97;100.00
19676;BME280;39539;52.202;9.876;2022-12-05T01:24:40;101052.25;;;1.09;100.00
19676;BME280;39539;52.202;9.876;2022-12-05T01:27:05;101053.91;;;1.20;100.00
19676;BME280;39539;52.202;9.876;2022-12-05T01:29:31;101054.19;;;1.17;100.00
19676;BME280;39539;52.202;9.876;2022-12-05T01:31:56;101054.03;;;1.09;100.00
19676;BME280;39539;52.202;9.876;2022-12-05T01:34:22;101052.56;;;1.16;100.00
19676;BME280;39539;52.202;9.876;2022-12-05T01:36:47;101052.50;;;0.97;100.00
19676;BME280;39539;52.202;9.876;2022-12-05T01:39:13;101062.44;;;1.03;100.00
19676;BME280;39539;52.202;9.876;2022-12-05T01:41:41;101054.81;;;0.90;100.00
19676;BME280;39539;52.202;9.876;2022-12-05T01:46:53;101043.69;;;0.88;100.00
19676;BME280;39539;52.202;9.876;2022-12-05T01:51:57;101066.84;;;1.12;100.00
19676;BME280;39539;52.202;9.876;2022-12-05T01:54:23;101057.22;;;1.12;100.00
19676;BME280;39539;52.202;9.876;2022-12-05T01:56:53;101056.09;;;1.05;100.00
19676;BME280;39539;52.202;9.876;2022-12-05T01:59:20;101053.06;;;1.00;100.00
19676;BME280;39539;52.202;9.876;2022-12-05T02:01:46;101046.03;;;1.01;100.00
19676;BME280;39539;52.202;9.876;2022-12-05T02:04:12;101048.97;;;1.17;100.00
19676;BME280;39539;52.202;9.876;2022-12-05T02:06:38;101059.16;;;1.10;100.00
19676;BME280;39539;52.202;9.876;2022-12-05T02:09:03;101048.09;;;1.07;100.00
19676;BME280;39539;52.202;9.876;2022-12-05T02:11:30;101046.72;;;1.12;100.00
19676;BME280;39539;52.202;9.876;2022-12-05T02:16:52;101048.09;;;1.07;100.00
19676;BME280;39539;52.202;9.876;2022-12-05T02:36:10;101052.66;;;1.05;100.00
19676;BME280;39539;52.202;9.876;2022-12-05T02:41:25;101047.56;;;0.94;100.00
19676;BME280;39539;52.202;9.876;2022-12-05T02:46:26;101038.72;;;0.95;100.00
19676;BME280;39539;52.202;9.876;2022-12-05T02:49:07;101030.72;;;0.96;100.00
19676;BME280;39539;52.202;9.876;2022-12-05T02:51:38;101031.56;;;0.97;100.00
19676;BME280;39539;52.202;9.876;2022-12-05T02:54:09;101031.56;;;0.97;100.00
19676;BME280;39539;52.202;9.876;2022-12-05T02:56:37;101037.34;;;1.00;100.00
19676;BME280;39539;52.202;9.876;2022-12-05T02:59:04;101042.03;;;1.06;100.00
19676;BME280;39539;52.202;9.876;2022-12-05T03:01:30;101016.16;;;1.03;100.00
19676;BME280;39539;52.202;9.876;2022-12-05T03:03:59;101032.44;;;1.17;100.00
19676;BME280;39539;52.202;9.876;2022-12-05T03:06:31;101036.13;;;1.14;100.00
19676;BME280;39539;52.202;9.876;2022-12-05T03:09:07;101040.94;;;1.19;100.00
19676;BME280;39539;52.202;9.876;2022-12-05T03:11:54;101040.16;;;1.28;100.00
19676;BME280;39539;52.202;9.876;2022-12-05T03:14:30;101040.28;;;1.26;100.00
19676;BME280;39539;52.202;9.876;2022-12-05T03:17:02;101044.28;;;1.30;100.00
19676;BME280;39539;52.202;9.876;2022-12-05T03:19:52;101045.53;;;1.36;100.00
19676;BME280;39539;52.202;9.876;2022-12-05T03:22:42;101046.91;;;1.30;100.00
19676;BME280;39539;52.202;9.876;2022-12-05T03:25:11;101052.00;;;1.22;100.00
19676;BME280;39539;52.202;9.876;2022-12-05T03:30:06;101048.13;;;1.17;100.00
19676;BME280;39539;52.202;9.876;2022-12-05T03:37:30;101053.22;;;1.18;100.00
19676;BME280;39539;52.202;9.876;2022-12-05T03:40:10;101048.28;;;1.25;100.00
19676;BME280;39539;52.202;9.876;2022-12-05T03:42:39;101034.63;;;1.21;100.00
19676;BME280;39539;52.202;9.876;2022-12-05T03:45:16;101027.75;;;1.20;100.00
19676;BME280;39539;52.202;9.876;2022-12-05T03:47:46;101037.38;;;1.29;100.00
19676;BME280;39539;52.202;9.876;2022-12-05T03:50:24;101034.75;;;1.29;100.00
19676;BME280;39539;52.202;9.876;2022-12-05T03:52:57;101037.69;;;1.36;100.00
19676;BME280;39539;52.202;9.876;2022-12-05T03:55:25;101028.44;;;1.22;100.00
19676;BME280;39539;52.202;9.876;2022-12-05T03:57:57;101021.69;;;1.20;100.00
19676;BME280;39539;52.202;9.876;2022-12-05T04:00:27;101008.84;;;1.07;100.00
19676;BME280;39539;52.202;9.876;2022-12-05T04:03:09;101039.59;;;1.34;100.00
19676;BME280;39539;52.202;9.876;2022-12-05T04:05:57;101035.88;;;1.37;100.00
19676;BME280;39539;52.202;9.876;2022-12-05T04:08:37;101030.91;;;1.33;100.00
19676;BME280;39539;52.202;9.876;2022-12-05T04:11:07;101037.09;;;1.32;100.00
19676;BME280;39539;52.202;9.876;2022-12-05T04:13:38;101016.56;;;1.18;100.00
19676;BME280;39539;52.202;9.876;2022-12-05T04:16:10;101032.16;;;1.29;100.00
19676;BME280;39539;52.202;9.876;2022-12-05T04:21:35;101034.09;;;1.37;100.00
19676;BME280;39539;52.202;9.876;2022-12-05T04:24:28;101034.47;;;1.32;100.00
19676;BME280;39539;52.202;9.876;2022-12-05T04:27:47;101032.16;;;1.29;100.00
19676;BME280;39539;52.202;9.876;2022-12-05T04:30:23;101029.09;;;1.24;100.00
19676;BME280;39539;52.202;9.876;2022-12-05T04:33:04;101028.81;;;1.27;100.00
19676;BME280;39539;52.202;9.876;2022-12-05T04:35:54;101021.69;;;1.20;100.00
19676;BME280;39539;52.202;9.876;2022-12-05T04:38:27;101024.53;;;1.07;100.00
19676;BME280;39539;52.202;9.876;2022-12-05T04:43:24;101024.28;;;1.10;100.00
19676;BME280;39539;52.202;9.876;2022-12-05T04:45:51;101018.66;;;1.05;100.00
19676;BME280;39539;52.202;9.876;2022-12-05T04:48:18;101024.69;;;1.15;100.00
19676;BME280;39539;52.202;9.876;2022-12-05T04:50:47;101031.59;;;1.16;100.00
19676;BME280;39539;52.202;9.876;2022-12-05T04:53:14;101026.06;;;1.09;100.00
19676;BME280;39539;52.202;9.876;2022-12-05T04:55:44;101031.03;;;1.03;100.00
19676;BME280;39539;52.202;9.876;2022-12-05T04:58:18;101025.78;;;1.03;100.00
19676;BME280;39539;52.202;9.876;2022-12-05T05:00:49;101024.66;;;0.96;100.00
19676;BME280;39539;52.202;9.876;2022-12-05T05:06:20;101017.13;;;1.12;100.00
19676;BME280;39539;52.202;9.876;2022-12-05T05:08:55;101024.00;;;1.13;100.00
19676;BME280;39539;52.202;9.876;2022-12-05T05:11:29;101026.38;;;1.16;100.00
19676;BME280;39539;52.202;9.876;2022-12-05T05:13:55;101027.31;;;1.15;100.00
19676;BME280;39539;52.202;9.876;2022-12-05T05:16:23;101026.63;;;1.03;100.00
19676;BME280;39539;52.202;9.876;2022-12-05T05:18:49;101020.69;;;0.92;100.00
19676;BME280;39539;52.202;9.876;2022-12-05T05:21:22;101026.34;;;0.97;100.00
19676;BME280;39539;52.202;9.876;2022-12-05T05:23:48;101037.31;;;0.90;100.00
19676;BME280;39539;52.202;9.876;2022-12-05T05:26:14;101030.06;;;0.94;100.00
19676;BME280;39539;52.202;9.876;2022-12-05T05:28:40;101024.13;;;0.82;100.00
19676;BME280;39539;52.202;9.876;2022-12-05T05:31:05;101031.16;;;0.92;100.00
19676;BME280;39539;52.202;9.876;2022-12-05T05:33:32;101038.72;;;0.95;100.00
19676;BME280;39539;52.202;9.876;2022-12-05T05:36:11;101037.22;;;1.02;100.00
19676;BME280;39539;52.202;9.876;2022-12-05T05:38:38;101036.50;;;0.80;100.00
19676;BME280;39539;52.202;9.876;2022-12-05T05:41:04;101032.09;;;0.81;100.00
19676;BME280;39539;52.202;9.876;2022-12-05T05:43:31;101040.31;;;0.76;100.00
19676;BME280;39539;52.202;9.876;2022-12-05T05:45:56;101030.84;;;0.75;100.00
19676;BME280;39539;52.202;9.876;2022-12-05T05:48:22;101045.19;;;0.90;100.00
19676;BME280;39539;52.202;9.876;2022-12-05T05:50:47;101038.28;;;0.80;100.00
19676;BME280;39539;52.202;9.876;2022-12-05T05:53:13;101049.69;;;0.79;100.00
19676;BME280;39539;52.202;9.876;2022-12-05T05:55:41;101041.47;;;0.83;100.00
19676;BME280;39539;52.202;9.876;2022-12-05T05:58:07;101038.94;;;0.72;100.00
19676;BME280;39539;52.202;9.876;2022-12-05T06:00:33;101040.47;;;0.75;100.00
19676;BME280;39539;52.202;9.876;2022-12-05T06:02:58;101042.22;;;0.64;100.00
19676;BME280;39539;52.202;9.876;2022-12-05T06:05:24;101045.16;;;0.71;100.00
19676;BME280;39539;52.202;9.876;2022-12-05T06:07:55;101041.28;;;0.65;100.00
19676;BME280;39539;52.202;9.876;2022-12-05T06:10:22;101040.03;;;0.60;100.00
19676;BME280;39539;52.202;9.876;2022-12-05T06:12:53;101041.66;;;0.61;100.00
19676;BME280;39539;52.202;9.876;2022-12-05T06:15:21;101040.44;;;0.65;100.00
19676;BME280;39539;52.202;9.876;2022-12-05T06:17:47;101043.72;;;0.57;100.00
19676;BME280;39539;52.202;9.876;2022-12-05T06:20:13;101040.69;;;0.62;100.00
19676;BME280;39539;52.202;9.876;2022-12-05T06:22:38;101037.03;;;0.74;100.00
19676;BME280;39539;52.202;9.876;2022-12-05T06:25:04;101049.53;;;0.71;100.00
19676;BME280;39539;52.202;9.876;2022-12-05T06:27:35;101049.28;;;0.74;100.00
19676;BME280;39539;52.202;9.876;2022-12-05T06:30:02;101045.81;;;0.73;100.00
19676;BME280;39539;52.202;9.876;2022-12-05T06:32:29;101032.78;;;0.42;100.00
19676;BME280;39539;52.202;9.876;2022-12-05T06:34:56;101045.25;;;0.60;100.00
19676;BME280;39539;52.202;9.876;2022-12-05T06:37:22;101049.25;;;0.64;100.00
19676;BME280;39539;52.202;9.876;2022-12-05T06:39:50;101040.03;;;0.60;100.00
19676;BME280;39539;52.202;9.876;2022-12-05T06:42:30;101053.66;;;0.73;100.00
19676;BME280;39539;52.202;9.876;2022-12-05T06:45:06;101050.78;;;0.66;100.00
19676;BME280;39539;52.202;9.876;2022-12-05T06:47:44;101053.50;;;0.65;100.00
19676;BME280;39539;52.202;9.876;2022-12-05T06:50:32;101056.00;;;0.66;100.00
19676;BME280;39539;52.202;9.876;2022-12-05T06:52:57;101061.25;;;0.66;100.00
19676;BME280;39539;52.202;9.876;2022-12-05T06:55:24;101059.88;;;0.72;100.00
19676;BME280;39539;52.202;9.876;2022-12-05T06:57:50;101062.06;;;0.67;100.00
19676;BME280;39539;52.202;9.876;2022-12-05T07:00:15;101057.38;;;0.61;100.00
19676;BME280;39539;52.202;9.876;2022-12-05T07:03:04;101061.25;;;0.66;100.00
19676;BME280;39539;52.202;9.876;2022-12-05T07:05:31;101065.09;;;0.62;100.00
19676;BME280;39539;52.202;9.876;2022-12-05T07:07:57;101071.69;;;0.66;100.00
19676;BME280;39539;52.202;9.876;2022-12-05T07:10:25;101066.34;;;0.68;100.00
19676;BME280;39539;52.202;9.876;2022-12-05T07:12:51;101065.66;;;0.66;100.00
19676;BME280;39539;52.202;9.876;2022-12-05T07:15:17;101061.44;;;0.54;100.00
19676;BME280;39539;52.202;9.876;2022-12-05T07:17:42;101076.09;;;0.66;100.00
19676;BME280;39539;52.202;9.876;2022-12-05T07:20:09;101063.97;;;0.65;100.00
19676;BME280;39539;52.202;9.876;2022-12-05T07:22:42;101078.19;;;0.72;100.00
19676;BME280;39539;52.202;9.876;2022-12-05T07:25:08;101075.13;;;0.67;100.00
19676;BME280;39539;52.202;9.876;2022-12-05T07:27:40;101076.53;;;0.71;100.00
19676;BME280;39539;52.202;9.876;2022-12-05T07:30:06;101069.06;;;0.57;100.00
19676;BME280;39539;52.202;9.876;2022-12-05T07:32:35;101082.19;;;0.76;100.00
19676;BME280;39539;52.202;9.876;2022-12-05T07:35:00;101085.34;;;0.70;100.00
19676;BME280;39539;52.202;9.876;2022-12-05T07:37:26;101071.16;;;0.63;100.00
19676;BME280;39539;52.202;9.876;2022-12-05T07:39:53;101079.44;;;0.68;100.00
19676;BME280;39539;52.202;9.876;2022-12-05T07:42:20;101064.94;;;0.64;100.00
19676;BME280;39539;52.202;9.876;2022-12-05T07:44:45;101054.88;;;0.59;100.00
19676;BME280;39539;52.202;9.876;2022-12-05T07:47:28;101091.00;;;0.75;100.00
19676;BME280;39539;52.202;9.876;2022-12-05T07:49:54;101075.75;;;0.80;100.00
19676;BME280;39539;52.202;9.876;2022-12-05T07:52:19;101088.28;;;0.86;100.00
19676;BME280;39539;52.202;9.876;2022-12-05T07:54:46;101084.97;;;0.84;100.00
19676;BME280;39539;52.202;9.876;2022-12-05T07:57:14;101071.47;;;0.79;100.00
19676;BME280;39539;52.202;9.876;2022-12-05T07:59:40;101085.25;;;0.81;100.00
19676;BME280;39539;52.202;9.876;2022-12-05T08:02:08;101090.78;;;0.88;100.00
19676;BME280;39539;52.202;9.876;2022-12-05T08:04:34;101079.06;;;0.82;100.00
19676;BME280;39539;52.202;9.876;2022-12-05T08:07:00;101092.16;;;0.92;100.00
19676;BME280;39539;52.202;9.876;2022-12-05T08:09:25;101081.69;;;0.92;100.00
19676;BME280;39539;52.202;9.876;2022-12-05T08:11:51;101087.47;;;0.96;100.00
19676;BME280;39539;52.202;9.876;2022-12-05T08:14:18;101078.53;;;0.88;100.00
19676;BME280;39539;52.202;9.876;2022-12-05T08:16:44;101087.03;;;0.90;100.00
19676;BME280;39539;52.202;9.876;2022-12-05T08:19:11;101083.75;;;0.88;100.00
19676;BME280;39539;52.202;9.876;2022-12-05T08:21:38;101094.19;;;0.79;100.00
19676;BME280;39539;52.202;9.876;2022-12-05T08:24:04;101092.00;;;0.84;100.00
19676;BME280;39539;52.202;9.876;2022-12-05T08:26:31;101084.81;;;0.76;100.00
19676;BME280;39539;52.202;9.876;2022-12-05T08:29:11;101072.84;;;0.74;100.00
19676;BME280;39539;52.202;9.876;2022-12-05T08:31:55;101088.16;;;0.88;100.00
19676;BME280;39539;52.202;9.876;2022-12-05T08:34:22;101086.66;;;0.85;100.00
19676;BME280;39539;52.202;9.876;2022-12-05T08:37:11;101096.53;;;0.82;100.00
19676;BME280;39539;52.202;9.876;2022-12-05T08:39:37;101075.84;;;0.69;100.00
19676;BME280;39539;52.202;9.876;2022-12-05T08:42:03;101088.63;;;0.62;100.00
19676;BME280;39539;52.202;9.876;2022-12-05T08:44:32;101094.41;;;0.66;100.00
19676;BME280;39539;52.202;9.876;2022-12-05T08:46:57;101084.06;;;0.64;100.00
19676;BME280;39539;52.202;9.876;2022-12-05T08:49:23;101096.69;;;0.80;100.00
19676;BME280;39539;52.202;9.876;2022-12-05T08:51:48;101102.06;;;0.88;100.00
19676;BME280;39539;52.202;9.876;2022-12-05T08:54:15;101076.41;;;0.73;100.00
19676;BME280;39539;52.202;9.876;2022-12-05T08:56:45;101076.72;;;0.79;100.00
19676;BME280;39539;52.202;9.876;2022-12-05T08:59:12;101094.91;;;0.90;100.00
19676;BME280;39539;52.202;9.876;2022-12-05T09:01:40;101088.03;;;0.89;100.00
19676;BME280;39539;52.202;9.876;2022-12-05T09:04:12;101105.13;;;1.03;100.00
19676;BME280;39539;52.202;9.876;2022-12-05T09:06:39;101092.16;;;1.02;100.00
19676;BME280;39539;52.202;9.876;2022-12-05T09:09:09;101105.41;;;1.10;100.00
19676;BME280;39539;52.202;9.876;2022-12-05T09:11:41;101109.56;;;1.12;100.00
19676;BME280;39539;52.202;9.876;2022-12-05T09:14:12;101100.34;;;1.08;100.00
19676;BME280;39539;52.202;9.876;2022-12-05T09:16:38;101092.88;;;0.94;100.00
19676;BME280;39539;52.202;9.876;2022-12-05T09:19:09;101092.44;;;0.99;100.00
19676;BME280;39539;52.202;9.876;2022-12-05T09:21:35;101101.31;;;1.17;100.00
19676;BME280;39539;52.202;9.876;2022-12-05T09:24:01;101064.91;;;0.95;100.00
19676;BME280;39539;52.202;9.876;2022-12-05T09:26:28;101106.97;;;1.22;100.00
19676;BME280;39539;52.202;9.876;2022-12-05T09:28:55;101087.56;;;1.25;100.00
19676;BME280;39539;52.202;9.876;2022-12-05T09:31:24;101102.88;;;1.49;100.00
19676;BME280;39539;52.202;9.876;2022-12-05T09:33:51;101069.22;;;1.34;100.00
19676;BME280;39539;52.202;9.876;2022-12-05T09:36:20;101090.19;;;1.54;100.00
19676;BME280;39539;52.202;9.876;2022-12-05T09:38:49;101091.69;;;1.66;100.00
19676;BME280;39539;52.202;9.876;2022-12-05T09:44:25;101074.34;;;1.65;100.00
19676;BME280;39539;52.202;9.876;2022-12-05T09:47:04;101094.31;;;1.86;100.00
19676;BME280;39539;52.202;9.876;2022-12-05T09:49:42;101108.81;;;1.90;100.00
19676;BME280;39539;52.202;9.876;2022-12-05T09:52:23;101103.00;;;1.96;100.00
19676;BME280;39539;52.202;9.876;2022-12-05T09:54:49;101085.47;;;1.87;100.00
19676;BME280;39539;52.202;9.876;2022-12-05T09:57:19;101105.63;;;1.86;100.00
19676;BME280;39539;52.202;9.876;2022-12-05T09:59:48;101101.06;;;1.88;100.00
19676;BME280;39539;52.202;9.876;2022-12-05T10:05:26;101095.25;;;1.94;100.00
19676;BME280;39539;52.202;9.876;2022-12-05T10:09:29;101097.06;;;1.94;100.00
19676;BME280;39539;52.202;9.876;2022-12-05T10:11:40;101092.25;;;1.99;100.00
19676;BME280;39539;52.202;9.876;2022-12-05T10:17:12;101090.72;;;1.96;100.00
19676;BME280;39539;52.202;9.876;2022-12-05T10:19:57;101091.13;;;1.92;100.00
19676;BME280;39539;52.202;9.876;2022-12-05T10:22:34;101081.50;;;1.83;100.00
19676;BME280;39539;52.202;9.876;2022-12-05T10:25:04;101073.22;;;1.87;100.00
19676;BME280;39539;52.202;9.876;2022-12-05T10:27:41;101053.63;;;1.82;100.00
19676;BME280;39539;52.202;9.876;2022-12-05T10:30:20;101083.69;;;1.97;100.00
19676;BME280;39539;52.202;9.876;2022-12-05T10:32:57;101072.50;;;1.95;100.00
19676;BME280;39539;52.202;9.876;2022-12-05T10:35:33;101070.28;;;2.00;100.00
19676;BME280;39539;52.202;9.876;2022-12-05T10:41:15;101078.84;;;2.02;100.00
19676;BME280;39539;52.202;9.876;2022-12-05T10:43:43;101079.53;;;2.04;100.00
19676;BME280;39539;52.202;9.876;2022-12-05T10:46:12;101086.72;;;2.02;100.00
19676;BME280;39539;52.202;9.876;2022-12-05T10:48:49;101073.88;;;1.99;100.00
19676;BME280;39539;52.202;9.876;2022-12-05T10:51:17;101078.16;;;2.00;100.00
19676;BME280;39539;52.202;9.876;2022-12-05T10:53:48;101055.84;;;1.76;100.00
19676;BME280;39539;52.202;9.876;2022-12-05T10:59:08;101066.84;;;1.99;100.00
19676;BME280;39539;52.202;9.876;2022-12-05T11:01:43;101076.75;;;2.06;100.00
19676;BME280;39539;52.202;9.876;2022-12-05T11:04:19;101072.09;;;1.99;100.00
19676;BME280;39539;52.202;9.876;2022-12-05T11:06:56;101067.41;;;1.93;100.00
19676;BME280;39539;52.202;9.876;2022-12-05T11:09:28;101070.00;;;2.13;100.00
19676;BME280;39539;52.202;9.876;2022-12-05T11:14:39;101056.88;;;2.13;100.00
19676;BME280;39539;52.202;9.876;2022-12-05T11:17:40;101056.44;;;2.17;100.00
19676;BME280;39539;52.202;9.876;2022-12-05T11:20:42;101071.22;;;2.18;100.00
19676;BME280;39539;52.202;9.876;2022-12-05T11:23:27;101065.53;;;2.33;100.00
19676;BME280;39539;52.202;9.876;2022-12-05T11:25:54;101062.78;;;2.24;100.00
19676;BME280;39539;52.202;9.876;2022-12-05T11:28:33;101056.13;;;2.30;100.00
19676;BME280;39539;52.202;9.876;2022-12-05T11:31:20;101066.47;;;2.32;100.00
19676;BME280;39539;52.202;9.876;2022-12-05T11:34:03;101056.53;;;2.35;100.00
19676;BME280;39539;52.202;9.876;2022-12-05T11:36:42;101057.47;;;2.44;100.00
19676;BME280;39539;52.202;9.876;2022-12-05T11:39:12;101066.84;;;2.46;100.00
19676;BME280;39539;52.202;9.876;2022-12-05T11:42:18;101050.66;;;2.51;100.00
19676;BME280;39539;52.202;9.876;2022-12-05T12:00:20;101037.66;;;2.87;100.00
19676;BME280;39539;52.202;9.876;2022-12-05T12:09:33;101048.78;;;3.17;100.00
19676;BME280;39539;52.202;9.876;2022-12-05T12:12:29;101035.34;;;3.20;100.00
19676;BME280;39539;52.202;9.876;2022-12-05T12:15:22;101025.00;;;3.18;100.00
19676;BME280;39539;52.202;9.876;2022-12-05T12:18:12;101029.25;;;3.19;100.00
19676;BME280;39539;52.202;9.876;2022-12-05T12:21:14;101027.47;;;3.20;100.00
19676;BME280;39539;52.202;9.876;2022-12-05T12:24:19;101033.41;;;3.22;100.00
19676;BME280;39539;52.202;9.876;2022-12-05T12:38:50;101031.28;;;3.07;100.00
19676;BME280;39539;52.202;9.876;2022-12-05T12:46:52;101014.53;;;2.73;100.00
19676;BME280;39539;52.202;9.876;2022-12-05T12:52:22;101032.09;;;2.62;100.00
19676;BME280;39539;52.202;9.876;2022-12-05T13:03:27;101012.31;;;2.68;100.00
19676;BME280;39539;52.202;9.876;2022-12-05T13:08:52;101007.53;;;2.63;100.00
19676;BME280;39539;52.202;9.876;2022-12-05T13:11:22;101019.69;;;2.64;100.00
19676;BME280;39539;52.202;9.876;2022-12-05T13:13:51;101023.22;;;2.73;100.00
19676;BME280;39539;52.202;9.876;2022-12-05T13:16:29;101016.31;;;2.72;100.00
19676;BME280;39539;52.202;9.876;2022-12-05T13:18:59;101024.44;;;2.79;100.00
19676;BME280;39539;52.202;9.876;2022-12-05T13:21:28;101009.00;;;2.66;100.00
19676;BME280;39539;52.202;9.876;2022-12-05T13:23:56;101018.03;;;2.63;100.00
19676;BME280;39539;52.202;9.876;2022-12-05T13:26:28;101021.31;;;2.65;100.00
19676;BME280;39539;52.202;9.876;2022-12-05T13:29:02;101017.44;;;2.69;100.00
19676;BME280;39539;52.202;9.876;2022-12-05T13:31:37;101012.19;;;2.69;100.00
19676;BME280;39539;52.202;9.876;2022-12-05T13:34:45;101019.69;;;2.64;100.00
19676;BME280;39539;52.202;9.876;2022-12-05T13:40:49;101019.06;;;2.43;100.00
19676;BME280;39539;52.202;9.876;2022-12-05T13:43:40;101021.47;;;2.36;100.00
19676;BME280;39539;52.202;9.876;2022-12-05T13:48:35;101021.50;;;2.27;100.00
19676;BME280;39539;52.202;9.876;2022-12-05T13:51:06;101028.13;;;2.31;100.00
19676;BME280;39539;52.202;9.876;2022-12-05T13:54:15;101027.41;;;2.29;100.00
19676;BME280;39539;52.202;9.876;2022-12-05T13:56:59;101030.34;;;2.25;100.00
19676;BME280;39539;52.202;9.876;2022-12-05T14:07:51;101032.84;;;2.17;100.00
19676;BME280;39539;52.202;9.876;2022-12-05T14:11:05;101031.59;;;2.21;100.00
19676;BME280;39539;52.202;9.876;2022-12-05T14:13:40;101029.81;;;2.22;100.00
19676;BME280;39539;52.202;9.876;2022-12-05T14:21:57;101030.91;;;2.19;100.00
19676;BME280;39539;52.202;9.876;2022-12-05T14:27:17;101026.25;;;2.13;100.00
19676;BME280;39539;52.202;9.876;2022-12-05T14:30:20;101010.81;;;2.10;100.00
19676;BME280;39539;52.202;9.876;2022-12-05T14:32:47;101024.84;;;2.09;100.00
19676;BME280;39539;52.202;9.876;2022-12-05T14:35:31;101026.38;;;2.12;100.00
19676;BME280;39539;52.202;9.876;2022-12-05T14:38:19;101017.16;;;1.98;100.00
19676;BME280;39539;52.202;9.876;2022-12-05T14:40:51;101029.03;;;2.02;100.00
19676;BME280;39539;52.202;9.876;2022-12-05T14:43:20;101028.06;;;2.03;100.00
19676;BME280;39539;52.202;9.876;2022-12-05T14:46:06;101010.44;;;1.95;100.00
19676;BME280;39539;52.202;9.876;2022-12-05T14:48:40;101021.16;;;2.02;100.00
19676;BME280;39539;52.202;9.876;2022-12-05T14:54:17;101017.50;;;1.85;100.00
19676;BME280;39539;52.202;9.876;2022-12-05T14:56:50;101019.84;;;1.69;100.00
19676;BME280;39539;52.202;9.876;2022-12-05T14:59:37;101025.94;;;1.50;100.00
19676;BME280;39539;52.202;9.876;2022-12-05T15:02:36;101008.31;;;1.42;100.00
19676;BME280;39539;52.202;9.876;2022-12-05T15:05:21;101013.97;;;1.38;100.00
19676;BME280;39539;52.202;9.876;2022-12-05T15:07:50;101020.28;;;1.54;100.00
19676;BME280;39539;52.202;9.876;2022-12-05T15:10:23;101032.69;;;1.62;100.00
19676;BME280;39539;52.202;9.876;2022-12-05T15:12:57;101037.41;;;1.59;100.00
19676;BME280;39539;52.202;9.876;2022-12-05T15:15:36;101036.25;;;1.61;100.00
19676;BME280;39539;52.202;9.876;2022-12-05T15:21:06;101043.47;;;1.59;100.00
19676;BME280;39539;52.202;9.876;2022-12-05T15:26:39;101045.91;;;1.61;100.00
19676;BME280;39539;52.202;9.876;2022-12-05T15:29:08;101044.00;;;1.63;100.00
19676;BME280;39539;52.202;9.876;2022-12-05T15:40:57;101045.22;;;1.68;100.00
19676;BME280;39539;52.202;9.876;2022-12-05T15:43:28;101047.81;;;1.78;100.00
19676;BME280;39539;52.202;9.876;2022-12-05T15:46:31;101054.47;;;1.72;100.00
19676;BME280;39539;52.202;9.876;2022-12-05T15:49:15;101039.31;;;1.56;100.00
19676;BME280;39539;52.202;9.876;2022-12-05T15:51:42;101055.16;;;1.55;100.00
19676;BME280;39539;52.202;9.876;2022-12-05T15:54:16;101055.03;;;1.56;100.00
19676;BME280;39539;52.202;9.876;2022-12-05T15:57:26;101055.59;;;1.60;100.00